Time;durP1;ratioP1;P1;durP2;ratioP2;P2;SDS_P1;SDS_P2;PMS_P1;PMS_P2;Temp;Humidity;BMP_temperature;BMP_pressure;BME280_temperature;BME280_humidity;BME280_pressure;Samples;Min_cycle;Max_cycle;Signal;HPM_P1;HPM_P2
2021/03/31 00:01:13;;;;;;;1.47;0.70;;;;;;;;;;5035089;28;20063;-74
2021/03/31 00:03:38;;;;;;;1.37;0.80;;;;;;;;;;5018693;28;20064;-74
2021/03/31 00:06:03;;;;;;;0.77;0.60;;;;;;;;;;5018804;28;20562;-75
2021/03/31 00:08:31;;;;;;;0.80;0.60;;;;;;;;;;5035024;28;20139;-75
2021/03/31 00:10:56;;;;;;;1.45;0.60;;;;;;;;;;5051823;28;20031;-74
2021/03/31 00:13:23;;;;;;;1.60;0.70;;;;;;;;;;5052841;28;20021;-74
2021/03/31 00:15:48;;;;;;;1.20;0.73;;;;;;;;;;5018638;28;20032;-75
2021/03/31 00:18:14;;;;;;;1.93;0.70;;;;;;;;;;5035040;28;20480;-75
2021/03/31 00:20:40;;;;;;;1.50;0.80;;;;;;;;;;5035163;28;20475;-74
2021/03/31 00:23:09;;;;;;;1.63;0.70;;;;;;;;;;5018468;28;20025;-74
2021/03/31 00:25:35;;;;;;;1.30;0.75;;;;;;;;;;5035122;28;20028;-74
2021/03/31 00:28:00;;;;;;;1.47;0.73;;;;;;;;;;5052843;28;20021;-75
2021/03/31 00:30:26;;;;;;;2.60;0.90;;;;;;;;;;5051427;28;20056;-74
2021/03/31 00:32:51;;;;;;;2.00;0.77;;;;;;;;;;5018282;28;20043;-74
2021/03/31 00:35:16;;;;;;;1.20;0.60;;;;;;;;;;5003087;28;20067;-75
2021/03/31 00:37:42;;;;;;;1.03;0.67;;;;;;;;;;5014974;28;20599;-74
2021/03/31 00:40:12;;;;;;;1.00;0.60;;;;;;;;;;5015164;28;20116;-75
2021/03/31 00:42:37;;;;;;;0.90;0.60;;;;;;;;;;5015143;28;20391;-74
2021/03/31 00:45:03;;;;;;;1.37;0.80;;;;;;;;;;5031479;28;20100;-75
2021/03/31 00:47:29;;;;;;;2.22;0.75;;;;;;;;;;5031300;28;20026;-74
2021/03/31 00:49:55;;;;;;;1.30;0.70;;;;;;;;;;5014960;28;20033;-74
2021/03/31 00:52:20;;;;;;;2.03;0.60;;;;;;;;;;5018219;28;20057;-74
2021/03/31 00:54:45;;;;;;;1.60;0.73;;;;;;;;;;5002207;28;20099;-74
2021/03/31 00:57:11;;;;;;;1.17;0.80;;;;;;;;;;5002058;28;20053;-75
2021/03/31 00:59:36;;;;;;;1.20;0.80;;;;;;;;;;5018580;28;20492;-74
2021/03/31 01:02:01;;;;;;;1.83;0.80;;;;;;;;;;5002133;28;20067;-74
2021/03/31 01:04:27;;;;;;;1.70;0.80;;;;;;;;;;5035025;28;20031;-75
2021/03/31 01:06:52;;;;;;;1.50;0.70;;;;;;;;;;5001969;28;20472;-74
2021/03/31 01:09:17;;;;;;;1.50;0.60;;;;;;;;;;5018199;28;20084;-74
2021/03/31 01:12:06;;;;;;;1.30;0.70;;;;;;;;;;5001823;28;20065;-74
2021/03/31 01:14:40;;;;;;;1.30;0.63;;;;;;;;;;5002238;28;20502;-75
2021/03/31 01:17:09;;;;;;;1.95;0.98;;;;;;;;;;5018074;28;20112;-75
2021/03/31 01:19:50;;;;;;;1.10;0.52;;;;;;;;;;5018020;28;20100;-74
2021/03/31 01:22:49;;;;;;;1.17;0.70;;;;;;;;;;5035669;28;20032;-74
2021/03/31 01:25:16;;;;;;;1.08;0.63;;;;;;;;;;5018098;28;20053;-75
2021/03/31 01:27:54;;;;;;;1.40;0.75;;;;;;;;;;5017989;28;20104;-75
2021/03/31 01:30:28;;;;;;;;;;;;;;;;;;5018226;28;20025;-74
2021/03/31 01:33:09;;;;;;;1.42;0.80;;;;;;;;;;5017678;28;19920;-74
2021/03/31 01:35:34;;;;;;;1.67;0.88;;;;;;;;;;5035674;28;20113;-74
2021/03/31 01:38:02;;;;;;;1.53;0.80;;;;;;;;;;5017790;28;20096;-75
2021/03/31 01:40:27;;;;;;;1.80;0.80;;;;;;;;;;5034038;28;20025;-74
2021/03/31 01:43:06;;;;;;;1.40;0.80;;;;;;;;;;5017597;28;20067;-74
2021/03/31 01:45:32;;;;;;;2.08;0.80;;;;;;;;;;5001191;28;20480;-74
2021/03/31 01:48:25;;;;;;;1.70;0.70;;;;;;;;;;5001255;28;20021;-75
2021/03/31 01:50:53;;;;;;;1.52;0.80;;;;;;;;;;4999943;28;20091;-75
2021/03/31 01:53:18;;;;;;;1.52;0.73;;;;;;;;;;5033795;28;20036;-74
2021/03/31 01:55:44;;;;;;;2.30;0.83;;;;;;;;;;5001120;28;20033;-74
2021/03/31 01:58:10;;;;;;;1.93;1.00;;;;;;;;;;5017375;28;20059;-74
2021/03/31 02:00:35;;;;;;;1.63;0.70;;;;;;;;;;5001434;28;20044;-74
2021/03/31 02:03:01;;;;;;;1.80;0.90;;;;;;;;;;5000401;28;20102;-75
2021/03/31 02:05:27;;;;;;;1.47;0.80;;;;;;;;;;5017335;28;20036;-74
2021/03/31 02:07:52;;;;;;;1.15;0.57;;;;;;;;;;5017185;28;20033;-75
2021/03/31 02:10:18;;;;;;;1.90;0.90;;;;;;;;;;5017200;28;20511;-74
2021/03/31 02:12:44;;;;;;;1.52;0.70;;;;;;;;;;5017154;28;20061;-75
2021/03/31 02:15:12;;;;;;;1.67;0.90;;;;;;;;;;5016974;28;20503;-74
2021/03/31 02:17:37;;;;;;;1.50;0.80;;;;;;;;;;5016881;28;20109;-74
2021/03/31 02:20:03;;;;;;;2.27;0.83;;;;;;;;;;5017042;28;20112;-74
2021/03/31 02:22:29;;;;;;;1.00;0.60;;;;;;;;;;5033216;28;20033;-74
2021/03/31 02:24:54;;;;;;;2.27;0.93;;;;;;;;;;5017019;28;20135;-75
2021/03/31 02:27:19;;;;;;;1.03;0.70;;;;;;;;;;5016897;28;20055;-74
2021/03/31 02:29:46;;;;;;;2.57;0.70;;;;;;;;;;5000418;28;20036;-75
2021/03/31 02:32:12;;;;;;;1.10;0.60;;;;;;;;;;5016539;28;20052;-74
2021/03/31 02:34:37;;;;;;;1.50;0.80;;;;;;;;;;5033504;28;20468;-74
2021/03/31 02:37:05;;;;;;;1.40;0.77;;;;;;;;;;5016709;28;20029;-74
2021/03/31 02:39:32;;;;;;;1.15;0.63;;;;;;;;;;5032974;28;20116;-74
2021/03/31 02:41:58;;;;;;;2.10;0.63;;;;;;;;;;5016494;28;20024;-74
2021/03/31 02:44:24;;;;;;;1.40;0.80;;;;;;;;;;5000171;28;20419;-75
2021/03/31 02:46:49;;;;;;;1.90;0.77;;;;;;;;;;5017219;28;20031;-75
2021/03/31 02:49:14;;;;;;;1.83;0.90;;;;;;;;;;5032919;28;20025;-74
2021/03/31 02:51:40;;;;;;;1.57;0.80;;;;;;;;;;5016367;28;20399;-74
2021/03/31 02:54:09;;;;;;;1.63;0.90;;;;;;;;;;5016547;28;20135;-74
2021/03/31 02:56:34;;;;;;;1.58;0.80;;;;;;;;;;5016363;28;20036;-74
2021/03/31 02:59:00;;;;;;;1.57;0.80;;;;;;;;;;4999943;28;20431;-74
2021/03/31 03:01:26;;;;;;;2.30;0.80;;;;;;;;;;5000326;28;20116;-74
2021/03/31 03:03:51;;;;;;;1.70;0.90;;;;;;;;;;4999976;28;20455;-73
2021/03/31 03:06:16;;;;;;;1.93;1.00;;;;;;;;;;4999693;28;20044;-74
2021/03/31 03:08:41;;;;;;;1.57;0.80;;;;;;;;;;5032423;28;20098;-73
2021/03/31 03:11:07;;;;;;;1.67;0.87;;;;;;;;;;5016134;28;20068;-74
2021/03/31 03:13:32;;;;;;;2.13;1.00;;;;;;;;;;5015658;28;20060;-74
2021/03/31 03:15:58;;;;;;;2.40;0.70;;;;;;;;;;5015447;28;20113;-74
2021/03/31 03:18:23;;;;;;;1.17;0.80;;;;;;;;;;5015909;28;20024;-74
2021/03/31 03:20:49;;;;;;;1.17;0.70;;;;;;;;;;5016134;28;20026;-75
2021/03/31 03:23:16;;;;;;;1.13;0.70;;;;;;;;;;5015619;28;20022;-74
2021/03/31 03:25:41;;;;;;;1.45;0.80;;;;;;;;;;4999431;28;20029;-74
2021/03/31 03:28:06;;;;;;;1.53;0.90;;;;;;;;;;5015799;28;20050;-74
2021/03/31 03:30:32;;;;;;;1.63;0.80;;;;;;;;;;4999401;28;20057;-75
2021/03/31 03:32:57;;;;;;;1.43;0.87;;;;;;;;;;5015707;28;20033;-75
2021/03/31 03:35:24;;;;;;;1.47;0.73;;;;;;;;;;5015663;28;20105;-75
2021/03/31 03:37:49;;;;;;;1.40;0.80;;;;;;;;;;5007413;28;20043;-74
2021/03/31 03:40:16;;;;;;;1.47;0.80;;;;;;;;;;5017394;28;20481;-74
2021/03/31 03:42:41;;;;;;;1.08;0.70;;;;;;;;;;5032216;28;20445;-74
2021/03/31 03:45:07;;;;;;;1.27;0.70;;;;;;;;;;5018750;28;20041;-74
2021/03/31 03:47:32;;;;;;;1.67;0.80;;;;;;;;;;5002809;28;20037;-74
2021/03/31 03:49:59;;;;;;;2.03;0.80;;;;;;;;;;5018988;28;20020;-74
2021/03/31 03:52:24;;;;;;;1.50;0.88;;;;;;;;;;5018789;28;20028;-74
2021/03/31 03:54:53;;;;;;;1.63;0.90;;;;;;;;;;5018976;28;20424;-75
2021/03/31 03:57:26;;;;;;;1.15;0.70;;;;;;;;;;5018667;28;20029;-75
2021/03/31 03:59:51;;;;;;;1.40;0.70;;;;;;;;;;5019254;28;20033;-75
2021/03/31 04:02:17;;;;;;;1.43;0.90;;;;;;;;;;5018675;28;20028;-74
2021/03/31 04:04:42;;;;;;;1.30;0.80;;;;;;;;;;5035346;28;20104;-74
2021/03/31 04:07:07;;;;;;;1.20;0.80;;;;;;;;;;5018780;28;20055;-74
2021/03/31 04:12:00;;;;;;;1.63;0.88;;;;;;;;;;5070013;28;20106;-76
2021/03/31 04:14:25;;;;;;;1.23;0.80;;;;;;;;;;5038320;28;20028;-76
2021/03/31 04:16:51;;;;;;;1.10;0.73;;;;;;;;;;5021928;28;20132;-76
2021/03/31 04:19:18;;;;;;;1.33;0.70;;;;;;;;;;5038263;28;20131;-76
2021/03/31 04:21:43;;;;;;;1.27;0.70;;;;;;;;;;5022274;28;20119;-76
2021/03/31 04:24:13;;;;;;;1.40;0.60;;;;;;;;;;5038305;28;20104;-76
2021/03/31 04:26:38;;;;;;;2.05;0.90;;;;;;;;;;5057411;28;20055;-76
2021/03/31 04:29:03;;;;;;;1.57;0.80;;;;;;;;;;5042960;28;20029;-76
2021/03/31 04:31:29;;;;;;;1.67;0.90;;;;;;;;;;5042094;28;20039;-76
2021/03/31 04:33:54;;;;;;;1.93;0.80;;;;;;;;;;5042151;28;20067;-75
2021/03/31 04:36:19;;;;;;;1.70;0.80;;;;;;;;;;5042122;28;20059;-76
2021/03/31 04:38:46;;;;;;;1.23;0.87;;;;;;;;;;5025354;28;20036;-76
2021/03/31 04:41:11;;;;;;;1.50;0.85;;;;;;;;;;5058804;28;20021;-76
2021/03/31 04:43:36;;;;;;;1.13;0.70;;;;;;;;;;5058551;28;20396;-76
2021/03/31 04:46:03;;;;;;;1.40;0.80;;;;;;;;;;5041911;28;20021;-76
2021/03/31 04:48:28;;;;;;;1.40;0.70;;;;;;;;;;5025821;28;20066;-76
2021/03/31 04:50:54;;;;;;;2.07;1.00;;;;;;;;;;5042086;28;20060;-76
2021/03/31 04:53:19;;;;;;;1.93;0.90;;;;;;;;;;5041903;28;20027;-76
2021/03/31 04:55:45;;;;;;;1.50;0.80;;;;;;;;;;5058392;28;20478;-75
2021/03/31 04:58:10;;;;;;;1.60;0.90;;;;;;;;;;5041660;28;20035;-76
2021/03/31 05:00:36;;;;;;;2.57;0.80;;;;;;;;;;5058208;28;20016;-76
2021/03/31 05:03:01;;;;;;;1.33;0.80;;;;;;;;;;5058389;28;20491;-76
2021/03/31 05:05:26;;;;;;;1.27;0.70;;;;;;;;;;5058175;28;20016;-76
2021/03/31 05:07:52;;;;;;;1.80;0.90;;;;;;;;;;5058137;28;20040;-76
2021/03/31 05:10:17;;;;;;;2.33;0.90;;;;;;;;;;5075680;28;20043;-76
2021/03/31 05:12:42;;;;;;;1.33;0.90;;;;;;;;;;5041459;28;20115;-76
2021/03/31 05:15:08;;;;;;;2.33;0.80;;;;;;;;;;5042389;28;20115;-75
2021/03/31 05:17:33;;;;;;;2.40;1.00;;;;;;;;;;5041226;28;20024;-76
2021/03/31 05:19:59;;;;;;;1.10;0.70;;;;;;;;;;5041380;28;20043;-76
2021/03/31 05:22:25;;;;;;;2.30;0.93;;;;;;;;;;5041457;28;20187;-75
2021/03/31 05:24:50;;;;;;;2.13;0.90;;;;;;;;;;5041060;28;20547;-76
2021/03/31 05:27:16;;;;;;;1.97;0.80;;;;;;;;;;5041090;28;20017;-76
2021/03/31 05:29:41;;;;;;;2.13;0.87;;;;;;;;;;5041055;28;20118;-76
2021/03/31 05:32:07;;;;;;;2.03;1.00;;;;;;;;;;5024436;28;20024;-76
2021/03/31 05:34:32;;;;;;;1.90;0.90;;;;;;;;;;5057672;28;20020;-76
2021/03/31 05:36:57;;;;;;;2.00;0.97;;;;;;;;;;5056902;28;20049;-76
2021/03/31 05:39:23;;;;;;;1.27;0.83;;;;;;;;;;5040831;28;20027;-76
2021/03/31 05:41:48;;;;;;;2.00;0.80;;;;;;;;;;5057481;28;20059;-76
2021/03/31 05:44:14;;;;;;;2.37;0.80;;;;;;;;;;5040897;28;20031;-76
2021/03/31 05:46:40;;;;;;;1.65;0.90;;;;;;;;;;5024163;28;20107;-76
2021/03/31 05:49:06;;;;;;;1.75;1.00;;;;;;;;;;5024340;28;20475;-76
2021/03/31 05:51:32;;;;;;;1.43;0.80;;;;;;;;;;5057218;28;20030;-75
2021/03/31 05:53:57;;;;;;;1.90;0.82;;;;;;;;;;5040714;28;20027;-75
2021/03/31 05:56:23;;;;;;;2.10;0.90;;;;;;;;;;5040582;28;20469;-75
2021/03/31 05:58:48;;;;;;;1.50;0.83;;;;;;;;;;5023919;28;20059;-76
2021/03/31 06:01:14;;;;;;;1.60;0.80;;;;;;;;;;5024156;28;20032;-75
2021/03/31 06:03:39;;;;;;;1.37;0.83;;;;;;;;;;5057044;28;20052;-75
2021/03/31 06:06:05;;;;;;;1.70;0.90;;;;;;;;;;5040611;28;20032;-75
2021/03/31 06:08:31;;;;;;;1.60;0.90;;;;;;;;;;5057074;28;20020;-75
2021/03/31 06:11:00;;;;;;;2.30;0.93;;;;;;;;;;5056954;28;20486;-76
2021/03/31 06:13:26;;;;;;;1.30;0.82;;;;;;;;;;5057067;28;20274;-75
2021/03/31 06:15:51;;;;;;;1.60;0.80;;;;;;;;;;5040395;28;20042;-75
2021/03/31 06:18:17;;;;;;;2.03;0.90;;;;;;;;;;5040123;28;20034;-75
2021/03/31 06:21:02;;;;;;;1.80;0.80;;;;;;;;;;5040084;28;20104;-76
2021/03/31 06:26:38;;;;;;;2.10;0.90;;;;;;;;;;5042477;28;20043;-77
2021/03/31 06:29:05;;;;;;;1.50;0.90;;;;;;;;;;5053889;28;20335;-76
2021/03/31 06:31:44;;;;;;;1.38;0.80;;;;;;;;;;5039977;28;20029;-76
2021/03/31 06:34:17;;;;;;;1.27;0.57;;;;;;;;;;5056719;28;20051;-76
2021/03/31 06:36:51;;;;;;;1.20;0.73;;;;;;;;;;5040246;28;20060;-76
2021/03/31 06:39:32;;;;;;;2.08;0.90;;;;;;;;;;5039805;28;20032;-76
2021/03/31 06:41:59;;;;;;;1.33;0.75;;;;;;;;;;5023328;28;20060;-76
2021/03/31 06:44:41;;;;;;;1.50;0.80;;;;;;;;;;5056284;28;20514;-76
2021/03/31 06:49:51;;;;;;;1.40;0.90;;;;;;;;;;5044527;28;20031;-76
2021/03/31 06:52:16;;;;;;;1.43;0.97;;;;;;;;;;5039462;28;20024;-76
2021/03/31 06:54:46;;;;;;;1.63;0.90;;;;;;;;;;5039325;28;20052;-76
2021/03/31 06:57:13;;;;;;;1.95;0.90;;;;;;;;;;5039707;28;20498;-76
2021/03/31 06:59:39;;;;;;;1.38;0.80;;;;;;;;;;5039417;28;20088;-76
2021/03/31 07:02:05;;;;;;;1.93;0.97;;;;;;;;;;5039114;28;20104;-76
2021/03/31 07:04:31;;;;;;;2.13;1.00;;;;;;;;;;5039428;28;20372;-76
2021/03/31 07:07:08;;;;;;;1.60;0.80;;;;;;;;;;5039144;28;20090;-76
2021/03/31 07:09:37;;;;;;;;;;;;;;;;;;5039588;28;20086;-76
2021/03/31 07:12:18;;;;;;;1.45;0.80;;;;;;;;;;5038917;28;19912;-76
2021/03/31 07:14:45;;;;;;;1.65;0.93;;;;;;;;;;5039465;28;20434;-76
2021/03/31 07:17:24;;;;;;;1.45;0.75;;;;;;;;;;5039040;28;20020;-76
2021/03/31 07:19:50;;;;;;;1.58;0.85;;;;;;;;;;5025462;28;20380;-76
2021/03/31 07:22:15;;;;;;;1.50;0.77;;;;;;;;;;5055454;28;20099;-76
2021/03/31 07:24:40;;;;;;;1.73;1.00;;;;;;;;;;5022300;28;20020;-76
2021/03/31 07:27:07;;;;;;;1.93;0.97;;;;;;;;;;5038807;28;20483;-76
2021/03/31 07:29:40;;;;;;;1.90;0.90;;;;;;;;;;5039038;28;20028;-76
2021/03/31 07:32:06;;;;;;;1.52;0.82;;;;;;;;;;5023514;28;20024;-76
2021/03/31 07:34:32;;;;;;;1.27;0.77;;;;;;;;;;5038780;28;20022;-76
2021/03/31 07:36:58;;;;;;;1.38;0.90;;;;;;;;;;5022468;28;20032;-76
2021/03/31 07:39:29;;;;;;;1.67;0.93;;;;;;;;;;5038688;28;20037;-76
2021/03/31 07:41:56;;;;;;;1.80;0.90;;;;;;;;;;5038896;28;20021;-76
2021/03/31 07:44:27;;;;;;;1.90;0.80;;;;;;;;;;5038801;28;20119;-76
2021/03/31 07:46:52;;;;;;;1.75;1.00;;;;;;;;;;5038709;28;20028;-76
2021/03/31 07:49:18;;;;;;;2.17;1.00;;;;;;;;;;5038616;28;20396;-76
2021/03/31 07:51:54;;;;;;;1.70;0.80;;;;;;;;;;5038574;28;20482;-76
2021/03/31 07:54:19;;;;;;;1.57;1.10;;;;;;;;;;5055309;28;20024;-76
2021/03/31 07:56:46;;;;;;;1.13;0.73;;;;;;;;;;5038565;28;20321;-76
2021/03/31 07:59:15;;;;;;;1.33;0.88;;;;;;;;;;5055345;28;20031;-76
2021/03/31 08:01:50;;;;;;;1.33;0.90;;;;;;;;;;5038842;28;20423;-76
2021/03/31 08:04:20;;;;;;;1.23;0.73;;;;;;;;;;5055355;28;20024;-76
2021/03/31 08:06:46;;;;;;;1.70;0.90;;;;;;;;;;5039157;28;20028;-76
2021/03/31 08:09:21;;;;;;;1.83;0.87;;;;;;;;;;5038398;28;20368;-76
2021/03/31 08:11:58;;;;;;;2.25;0.90;;;;;;;;;;5040081;28;20036;-76
2021/03/31 08:14:26;;;;;;;1.77;0.90;;;;;;;;;;5039349;28;20026;-76
2021/03/31 08:16:52;;;;;;;2.28;1.10;;;;;;;;;;5072964;28;20025;-76
2021/03/31 08:19:31;;;;;;;1.50;1.00;;;;;;;;;;5055290;28;20024;-76
2021/03/31 08:21:57;;;;;;;1.73;0.98;;;;;;;;;;5072756;28;20028;-76
2021/03/31 08:24:44;;;;;;;2.25;1.00;;;;;;;;;;5038732;28;20021;-76
2021/03/31 08:27:10;;;;;;;0.95;0.77;;;;;;;;;;5055131;28;20074;-75
2021/03/31 08:29:35;;;;;;;1.87;1.00;;;;;;;;;;5038353;28;20025;-76
2021/03/31 08:32:05;;;;;;;1.43;0.73;;;;;;;;;;5072675;28;20514;-76
2021/03/31 08:34:31;;;;;;;1.48;0.80;;;;;;;;;;5038276;28;20032;-76
2021/03/31 08:36:57;;;;;;;2.80;1.02;;;;;;;;;;5021869;28;20026;-76
2021/03/31 08:39:22;;;;;;;1.85;1.00;;;;;;;;;;5054861;28;20035;-77
2021/03/31 08:41:55;;;;;;;2.07;1.10;;;;;;;;;;5038175;28;20394;-76
2021/03/31 08:44:27;;;;;;;2.08;1.15;;;;;;;;;;5039914;28;20040;-76
2021/03/31 08:46:53;;;;;;;1.60;0.98;;;;;;;;;;5055333;28;20021;-76
2021/03/31 08:49:26;;;;;;;1.40;0.85;;;;;;;;;;5021588;28;20031;-76
2021/03/31 08:51:53;;;;;;;1.90;1.17;;;;;;;;;;5038235;28;20032;-76
2021/03/31 08:54:38;;;;;;;1.20;0.90;;;;;;;;;;5021696;28;20073;-76
2021/03/31 08:57:05;;;;;;;1.42;0.90;;;;;;;;;;5055788;28;20028;-76
2021/03/31 08:59:32;;;;;;;1.75;0.90;;;;;;;;;;5038187;28;20039;-76
2021/03/31 09:01:57;;;;;;;2.78;1.02;;;;;;;;;;5054610;28;20030;-76
2021/03/31 09:04:25;;;;;;;1.83;1.00;;;;;;;;;;5021606;28;20028;-76
2021/03/31 09:06:50;;;;;;;1.88;0.93;;;;;;;;;;5022007;28;20559;-76
2021/03/31 09:09:15;;;;;;;1.57;0.80;;;;;;;;;;5054465;28;20119;-76
2021/03/31 09:11:41;;;;;;;1.43;0.90;;;;;;;;;;5054201;28;20067;-76
2021/03/31 09:14:16;;;;;;;2.00;1.00;;;;;;;;;;5040718;28;20051;-77
2021/03/31 09:16:55;;;;;;;1.75;0.98;;;;;;;;;;5041489;28;20035;-76
2021/03/31 09:19:21;;;;;;;1.77;0.90;;;;;;;;;;5058012;28;20502;-76
2021/03/31 09:21:46;;;;;;;1.77;0.90;;;;;;;;;;5041219;28;20028;-76
2021/03/31 09:24:19;;;;;;;1.57;0.97;;;;;;;;;;5058055;28;20030;-76
2021/03/31 09:27:04;;;;;;;1.88;1.00;;;;;;;;;;5059313;28;20033;-76
2021/03/31 09:29:29;;;;;;;1.67;0.82;;;;;;;;;;5076024;28;20044;-76
2021/03/31 09:31:56;;;;;;;2.53;1.03;;;;;;;;;;5057634;28;20038;-76
2021/03/31 09:34:21;;;;;;;;;;;;;;;;;;5058380;28;20395;-76
2021/03/31 09:36:59;;;;;;;1.27;0.88;;;;;;;;;;5057637;28;19991;-76
2021/03/31 09:39:43;;;;;;;1.55;0.90;;;;;;;;;;5041180;28;20025;-76
2021/03/31 09:42:14;;;;;;;1.67;0.90;;;;;;;;;;5075353;28;20029;-76
2021/03/31 09:44:39;;;;;;;2.67;0.90;;;;;;;;;;5057827;28;20057;-76
2021/03/31 09:47:05;;;;;;;2.07;0.80;;;;;;;;;;5040849;28;20028;-76
2021/03/31 09:49:30;;;;;;;2.63;0.93;;;;;;;;;;5040855;28;20020;-76
2021/03/31 09:51:55;;;;;;;1.37;0.93;;;;;;;;;;5024103;28;20130;-76
2021/03/31 09:54:26;;;;;;;1.47;0.80;;;;;;;;;;5024347;28;20110;-76
2021/03/31 09:56:51;;;;;;;1.70;1.00;;;;;;;;;;5041309;28;20094;-76
2021/03/31 09:59:16;;;;;;;1.50;0.93;;;;;;;;;;5040527;28;20503;-76
2021/03/31 10:01:42;;;;;;;1.67;0.90;;;;;;;;;;5057088;28;20078;-76
2021/03/31 10:04:07;;;;;;;2.10;0.80;;;;;;;;;;5057383;28;20055;-76
2021/03/31 10:06:33;;;;;;;1.20;0.80;;;;;;;;;;5024115;28;20028;-76
2021/03/31 10:08:58;;;;;;;1.43;0.80;;;;;;;;;;5050719;22;20005;-77
2021/03/31 10:11:38;;;;;;;1.30;0.90;;;;;;;;;;4997803;28;20551;-77
2021/03/31 10:14:04;;;;;;;2.30;1.00;;;;;;;;;;4998703;28;20484;-77
2021/03/31 10:16:37;;;;;;;1.90;0.95;;;;;;;;;;4982125;28;20026;-77
2021/03/31 10:19:03;;;;;;;1.50;0.88;;;;;;;;;;4998177;28;20084;-77
2021/03/31 10:21:32;;;;;;;1.40;0.80;;;;;;;;;;5001807;28;20056;-77
2021/03/31 10:23:58;;;;;;;1.75;1.00;;;;;;;;;;5001498;28;20025;-77
2021/03/31 10:26:33;;;;;;;1.30;0.90;;;;;;;;;;5018206;28;20041;-78
2021/03/31 10:29:00;;;;;;;1.25;0.90;;;;;;;;;;5003347;28;20396;-78
2021/03/31 10:31:35;;;;;;;1.17;0.80;;;;;;;;;;5018933;28;20035;-79
2021/03/31 10:34:01;;;;;;;2.25;1.10;;;;;;;;;;5018870;28;20060;-78
2021/03/31 10:36:56;;;;;;;2.20;1.00;;;;;;;;;;5002678;28;20021;-79
2021/03/31 10:48:30;;;;;;;1.92;0.88;;;;;;;;;;5020311;28;20028;-78
2021/03/31 10:53:35;;;;;;;2.15;0.93;;;;;;;;;;5004633;28;20032;-78
2021/03/31 10:56:02;;;;;;;1.88;1.00;;;;;;;;;;5002509;28;20052;-77
2021/03/31 10:58:27;;;;;;;;;;;;;;;;;;5002620;28;20105;-77
2021/03/31 11:00:53;;;;;;;1.67;0.90;;;;;;;;;;5018160;28;19944;-77
2021/03/31 11:03:18;;;;;;;1.83;1.10;;;;;;;;;;5017882;28;20291;-77
2021/03/31 11:05:44;;;;;;;1.47;0.70;;;;;;;;;;5001868;28;20064;-77
2021/03/31 11:08:09;;;;;;;1.93;1.00;;;;;;;;;;4986054;28;20037;-78
2021/03/31 11:10:34;;;;;;;1.73;0.97;;;;;;;;;;5018673;28;20064;-78
2021/03/31 11:13:00;;;;;;;2.13;1.00;;;;;;;;;;4985659;28;20048;-78
2021/03/31 11:15:25;;;;;;;2.43;1.03;;;;;;;;;;4985220;28;20052;-78
2021/03/31 11:25:57;;;;;;;1.67;0.88;;;;;;;;;;5034949;28;19916;-77
2021/03/31 11:28:22;;;;;;;2.53;0.98;;;;;;;;;;5017095;28;20168;-78
2021/03/31 11:30:48;;;;;;;1.83;1.03;;;;;;;;;;5017181;28;20056;-77
2021/03/31 11:33:13;;;;;;;1.50;0.90;;;;;;;;;;5017297;28;20031;-78
2021/03/31 11:35:39;;;;;;;2.43;1.07;;;;;;;;;;5034552;28;20492;-77
2021/03/31 11:38:04;;;;;;;1.40;0.80;;;;;;;;;;5001111;28;20045;-78
2021/03/31 11:40:30;;;;;;;1.67;0.90;;;;;;;;;;5017450;28;20112;-78
2021/03/31 11:42:55;;;;;;;2.17;0.90;;;;;;;;;;5001294;28;20021;-77
2021/03/31 11:45:21;;;;;;;1.83;0.97;;;;;;;;;;4985376;28;20025;-77
2021/03/31 11:47:46;;;;;;;1.90;1.10;;;;;;;;;;5018119;28;20412;-78
2021/03/31 11:50:12;;;;;;;2.10;1.07;;;;;;;;;;5001505;28;20053;-79
2021/03/31 11:52:37;;;;;;;1.73;0.97;;;;;;;;;;5001290;28;20022;-79
2021/03/31 11:55:03;;;;;;;1.80;1.00;;;;;;;;;;4984853;28;20053;-78
2021/03/31 11:57:29;;;;;;;2.42;1.05;;;;;;;;;;5017679;28;20488;-79
2021/03/31 11:59:54;;;;;;;2.67;0.80;;;;;;;;;;5001331;28;20029;-78
2021/03/31 12:02:19;;;;;;;1.77;0.93;;;;;;;;;;4999632;28;20550;-76
2021/03/31 12:04:45;;;;;;;2.13;1.03;;;;;;;;;;4999151;28;20026;-76
2021/03/31 12:07:12;;;;;;;1.80;0.80;;;;;;;;;;5033097;28;20112;-76
2021/03/31 12:09:40;;;;;;;1.73;0.90;;;;;;;;;;5015616;28;20468;-76
2021/03/31 12:12:09;;;;;;;1.67;0.90;;;;;;;;;;5015147;28;20076;-76
2021/03/31 12:14:35;;;;;;;2.05;0.88;;;;;;;;;;5015370;28;20426;-76
2021/03/31 12:17:01;;;;;;;1.20;0.80;;;;;;;;;;5033165;28;20031;-76
2021/03/31 12:19:27;;;;;;;;;;;;;;;;;;4983203;28;20018;-76
2021/03/31 12:21:53;;;;;;;1.57;0.90;;;;;;;;;;5032847;28;19916;-76
2021/03/31 12:24:19;;;;;;;;;;;;;;;;;;4999462;28;20056;-76
2021/03/31 12:26:44;;;;;;;3.00;0.80;;;;;;;;;;5015229;28;19917;-76
2021/03/31 12:29:09;;;;;;;1.43;0.90;;;;;;;;;;5015253;28;20314;-76
2021/03/31 12:31:36;;;;;;;1.63;0.90;;;;;;;;;;5015525;28;20056;-76
2021/03/31 12:34:01;;;;;;;1.75;0.80;;;;;;;;;;4998969;28;20548;-76
2021/03/31 12:36:26;;;;;;;1.20;0.73;;;;;;;;;;5015143;28;20113;-76
2021/03/31 12:38:52;;;;;;;2.20;1.00;;;;;;;;;;5015358;28;20045;-76
2021/03/31 12:41:17;;;;;;;1.50;0.83;;;;;;;;;;5032569;28;20502;-76
2021/03/31 12:43:42;;;;;;;1.60;0.90;;;;;;;;;;5015262;28;20064;-76
2021/03/31 12:46:08;;;;;;;1.53;0.90;;;;;;;;;;4998672;28;20056;-76
2021/03/31 12:48:33;;;;;;;1.57;1.10;;;;;;;;;;5002321;28;20108;-76
2021/03/31 12:51:05;;;;;;;1.73;0.90;;;;;;;;;;5018765;28;20076;-76
2021/03/31 12:53:38;;;;;;;1.90;0.90;;;;;;;;;;5003211;28;20044;-76
2021/03/31 12:56:03;;;;;;;1.95;0.80;;;;;;;;;;5004571;28;20029;-76
2021/03/31 12:58:29;;;;;;;1.50;0.70;;;;;;;;;;5002174;28;20029;-76
2021/03/31 13:00:59;;;;;;;1.40;0.90;;;;;;;;;;5018500;28;20033;-76
2021/03/31 13:03:24;;;;;;;1.40;0.80;;;;;;;;;;4986920;28;20176;-76
2021/03/31 13:05:49;;;;;;;1.53;0.83;;;;;;;;;;5018743;28;20120;-76
2021/03/31 13:08:15;;;;;;;1.80;0.90;;;;;;;;;;4985799;28;20049;-76
2021/03/31 13:10:42;;;;;;;1.52;0.80;;;;;;;;;;5036071;28;20108;-76
2021/03/31 13:32:00;;;;;;;1.67;0.90;;;;;;;;;;5020817;28;20033;-76
2021/03/31 13:34:29;;;;;;;2.40;0.95;;;;;;;;;;5019521;28;20028;-76
2021/03/31 13:37:11;;;;;;;1.58;0.88;;;;;;;;;;5001915;28;20112;-76
2021/03/31 13:39:40;;;;;;;2.33;1.10;;;;;;;;;;5003524;28;20032;-76
2021/03/31 13:42:06;;;;;;;2.13;0.80;;;;;;;;;;5002449;28;20025;-76
2021/03/31 13:44:31;;;;;;;1.77;0.70;;;;;;;;;;5035714;28;20405;-76
2021/03/31 13:47:00;;;;;;;1.37;0.90;;;;;;;;;;5001407;28;20022;-76
2021/03/31 13:49:38;;;;;;;2.35;1.02;;;;;;;;;;5018209;28;20033;-76
2021/03/31 13:52:16;;;;;;;2.22;1.00;;;;;;;;;;5002828;28;20033;-76
2021/03/31 13:54:46;;;;;;;2.10;1.02;;;;;;;;;;4988335;28;20026;-76
2021/03/31 13:57:14;;;;;;;1.42;0.82;;;;;;;;;;5018296;28;20030;-76
2021/03/31 13:59:40;;;;;;;1.60;0.75;;;;;;;;;;4984956;28;20029;-76
2021/03/31 14:02:05;;;;;;;2.30;1.00;;;;;;;;;;5001105;28;20480;-76
2021/03/31 14:04:30;;;;;;;2.00;0.83;;;;;;;;;;5035052;28;20370;-76
2021/03/31 14:06:56;;;;;;;1.73;0.90;;;;;;;;;;5001320;28;20049;-76
2021/03/31 14:09:21;;;;;;;1.10;0.70;;;;;;;;;;5017211;28;20095;-76
2021/03/31 14:11:47;;;;;;;2.40;1.00;;;;;;;;;;5001256;28;20029;-76
2021/03/31 14:14:14;;;;;;;1.83;0.90;;;;;;;;;;4985007;28;20029;-76
2021/03/31 14:16:42;;;;;;;2.03;0.80;;;;;;;;;;5017544;28;20480;-76
2021/03/31 14:19:08;;;;;;;1.52;0.80;;;;;;;;;;5001480;28;20021;-76
2021/03/31 14:21:33;;;;;;;1.43;0.80;;;;;;;;;;5034851;28;20104;-76
2021/03/31 14:23:58;;;;;;;1.50;0.90;;;;;;;;;;5017241;28;20500;-76
2021/03/31 14:26:24;;;;;;;2.07;0.90;;;;;;;;;;5017069;28;20618;-76
2021/03/31 14:28:49;;;;;;;1.57;0.80;;;;;;;;;;5017016;28;20056;-76
2021/03/31 14:31:14;;;;;;;1.80;0.80;;;;;;;;;;5016828;28;20052;-76
2021/03/31 14:33:40;;;;;;;1.60;0.90;;;;;;;;;;5016804;28;20500;-76
2021/03/31 14:36:05;;;;;;;1.43;0.80;;;;;;;;;;5000592;28;20495;-76
2021/03/31 14:38:30;;;;;;;1.10;0.77;;;;;;;;;;5000410;28;20445;-76
2021/03/31 14:40:56;;;;;;;1.57;0.77;;;;;;;;;;5000340;28;20104;-76
2021/03/31 14:43:21;;;;;;;1.20;0.60;;;;;;;;;;5016600;28;20057;-76
2021/03/31 14:45:46;;;;;;;1.47;0.70;;;;;;;;;;5017093;28;20057;-76
2021/03/31 14:48:12;;;;;;;1.50;0.90;;;;;;;;;;5000277;28;20033;-76
2021/03/31 14:50:37;;;;;;;2.80;1.00;;;;;;;;;;5016605;28;20425;-77
2021/03/31 14:59:28;;;;;;;1.57;0.80;;;;;;;;;;5016733;28;20030;-76
2021/03/31 15:01:06;;;;;;;1.55;0.80;;;;;;;;;;5020309;28;20063;-76
2021/03/31 15:03:31;;;;;;;1.33;0.80;;;;;;;;;;5033865;28;20060;-77
2021/03/31 15:05:57;;;;;;;2.10;0.80;;;;;;;;;;5033852;28;20057;-76
2021/03/31 15:08:22;;;;;;;1.97;0.83;;;;;;;;;;4999938;28;20053;-77
2021/03/31 15:10:47;;;;;;;1.60;0.90;;;;;;;;;;5033788;28;20053;-76
2021/03/31 15:13:13;;;;;;;1.73;0.80;;;;;;;;;;4999723;28;20171;-76
2021/03/31 15:15:38;;;;;;;1.97;0.80;;;;;;;;;;4999820;28;20021;-77
2021/03/31 15:18:03;;;;;;;2.03;1.00;;;;;;;;;;4999736;28;20104;-76
2021/03/31 15:20:33;;;;;;;1.53;0.90;;;;;;;;;;4999633;28;20504;-77
2021/03/31 15:23:14;;;;;;;1.70;0.75;;;;;;;;;;5000610;28;20492;-76
2021/03/31 15:25:40;;;;;;;1.05;0.75;;;;;;;;;;5018205;28;20056;-77
2021/03/31 15:28:05;;;;;;;1.43;0.90;;;;;;;;;;5033408;28;20116;-76
2021/03/31 15:30:30;;;;;;;1.63;0.90;;;;;;;;;;4999274;28;20025;-76
2021/03/31 15:32:56;;;;;;;1.67;0.73;;;;;;;;;;4983248;28;20017;-75
2021/03/31 15:35:21;;;;;;;2.20;0.90;;;;;;;;;;5015657;28;20049;-76
2021/03/31 15:37:47;;;;;;;1.83;0.80;;;;;;;;;;4999279;28;20024;-76
2021/03/31 15:40:13;;;;;;;1.70;0.70;;;;;;;;;;5015570;28;20056;-77